createdAt,value
2018-09-13T00:01:09.974Z,19.77
2018-09-13T00:03:38.073Z,19.60
2018-09-13T00:06:06.416Z,20.80
2018-09-13T00:08:34.473Z,19.30
2018-09-13T00:11:02.497Z,19.80
2018-09-13T00:13:30.538Z,17.77
2018-09-13T00:15:58.600Z,15.70
2018-09-13T00:18:26.620Z,16.07
2018-09-13T00:20:54.693Z,14.57
2018-09-13T00:23:22.728Z,19.97
2018-09-13T00:25:50.769Z,13.47
2018-09-13T00:28:18.820Z,12.30
2018-09-13T00:30:46.867Z,8.17
2018-09-13T00:33:14.928Z,14.63
2018-09-13T00:35:42.960Z,13.13
2018-09-13T00:38:11.004Z,14.03
2018-09-13T00:40:39.057Z,13.13
2018-09-13T00:43:07.080Z,14.27
2018-09-13T00:45:35.147Z,11.30
2018-09-13T00:48:03.260Z,10.10
2018-09-13T00:50:31.422Z,8.13
2018-09-13T00:52:59.411Z,10.10
2018-09-13T00:55:27.428Z,15.13
2018-09-13T00:57:55.452Z,10.40
2018-09-13T01:00:23.459Z,13.07
2018-09-13T01:02:51.492Z,11.17
2018-09-13T01:05:19.532Z,6.50
2018-09-13T01:07:47.565Z,11.40
2018-09-13T01:10:15.585Z,11.37
2018-09-13T01:12:43.717Z,12.90
2018-09-13T01:15:11.801Z,11.07
2018-09-13T01:17:39.816Z,13.33
2018-09-13T01:20:07.875Z,9.40
2018-09-13T01:22:35.895Z,10.93
2018-09-13T01:25:04.288Z,13.17
2018-09-13T01:27:32.361Z,17.27
2018-09-13T01:30:00.449Z,11.90
2018-09-13T01:32:28.474Z,10.93
2018-09-13T01:34:56.523Z,9.07
2018-09-13T01:37:24.568Z,10.07
2018-09-13T01:39:59.389Z,11.57
2018-09-13T01:42:27.473Z,13.03
2018-09-13T01:44:55.582Z,12.07
2018-09-13T01:47:23.569Z,10.00
2018-09-13T01:49:51.637Z,13.87
2018-09-13T01:52:19.698Z,12.57
2018-09-13T01:54:47.750Z,11.63
2018-09-13T01:57:15.781Z,11.00
2018-09-13T01:59:43.818Z,12.83
2018-09-13T02:02:11.862Z,14.13
2018-09-13T02:04:46.542Z,18.43
2018-09-13T02:07:14.558Z,11.93
2018-09-13T02:09:42.575Z,11.40
2018-09-13T02:12:10.609Z,16.67
2018-09-13T02:14:38.676Z,14.30
2018-09-13T02:17:06.692Z,13.03
2018-09-13T02:19:34.719Z,18.67
2018-09-13T02:22:02.809Z,13.13
2018-09-13T02:24:30.838Z,14.13
2018-09-13T02:26:58.903Z,15.00
2018-09-13T02:29:26.991Z,15.27
2018-09-13T02:31:55.012Z,12.83
2018-09-13T02:34:23.115Z,23.10
2018-09-13T02:36:51.268Z,19.07
2018-09-13T02:39:19.295Z,18.40
2018-09-13T02:41:47.345Z,19.10
2018-09-13T02:44:15.396Z,15.17
2018-09-13T02:46:43.471Z,17.63
2018-09-13T02:49:11.532Z,19.43
2018-09-13T02:51:39.588Z,17.17
2018-09-13T02:54:07.640Z,17.27
2018-09-13T02:56:35.705Z,16.77
2018-09-13T02:59:03.761Z,19.53
2018-09-13T03:01:31.802Z,19.27
2018-09-13T03:03:59.838Z,21.37
2018-09-13T03:06:27.862Z,11.43
2018-09-13T03:08:55.912Z,17.37
2018-09-13T03:11:24.050Z,14.97
2018-09-13T03:13:52.056Z,15.77
2018-09-13T03:16:20.154Z,18.43
2018-09-13T03:18:48.165Z,14.97
2018-09-13T03:21:16.216Z,16.40
2018-09-13T03:23:44.232Z,8.17
2018-09-13T03:26:12.236Z,16.03
2018-09-13T03:28:40.256Z,15.00
2018-09-13T03:31:08.405Z,11.63
2018-09-13T03:33:36.482Z,17.07
2018-09-13T03:36:04.525Z,17.70
2018-09-13T03:38:32.561Z,19.87
2018-09-13T03:41:00.564Z,18.83
2018-09-13T03:43:28.613Z,22.67
2018-09-13T03:45:56.634Z,17.97
2018-09-13T03:48:24.674Z,17.43
2018-09-13T03:50:52.756Z,17.73
2018-09-13T03:53:20.837Z,19.27
2018-09-13T03:55:48.907Z,12.77
2018-09-13T03:58:16.870Z,14.90
2018-09-13T04:00:44.945Z,17.57
2018-09-13T04:03:13.028Z,17.60
2018-09-13T04:05:41.044Z,18.23
2018-09-13T04:08:09.149Z,14.67
2018-09-13T04:10:37.169Z,18.17
2018-09-13T04:13:05.305Z,22.07
2018-09-13T04:15:33.468Z,11.47
2018-09-13T04:18:01.562Z,12.90
2018-09-13T04:20:29.569Z,15.63
2018-09-13T04:22:57.611Z,17.73
2018-09-13T04:25:25.656Z,14.53
2018-09-13T04:27:53.720Z,12.17
2018-09-13T04:30:21.893Z,12.57
2018-09-13T04:32:49.972Z,12.07
2018-09-13T04:35:18.008Z,15.80
2018-09-13T04:37:46.073Z,12.80
2018-09-13T04:40:14.127Z,16.73
2018-09-13T04:42:42.188Z,20.63
2018-09-13T04:45:10.264Z,14.73
2018-09-13T04:47:38.276Z,20.33
2018-09-13T04:50:06.394Z,17.80
2018-09-13T04:52:34.407Z,21.00
2018-09-13T04:55:02.513Z,18.80
2018-09-13T04:57:30.534Z,30.57
2018-09-13T04:59:58.536Z,39.40
2018-09-13T05:02:26.612Z,45.97
2018-09-13T05:04:54.664Z,65.63
2018-09-13T05:07:22.671Z,64.53
2018-09-13T05:09:50.809Z,50.97
2018-09-13T05:12:18.861Z,33.70
2018-09-13T05:14:46.887Z,33.20
2018-09-13T05:17:14.928Z,25.73
2018-09-13T05:19:42.957Z,28.77
2018-09-13T05:22:17.859Z,24.80
2018-09-13T05:24:45.885Z,22.13
2018-09-13T05:27:13.913Z,28.27
2018-09-13T05:29:41.928Z,23.67
2018-09-13T05:32:09.987Z,22.03
2018-09-13T05:34:38.003Z,23.73
2018-09-13T05:37:06.073Z,27.27
2018-09-13T05:39:34.207Z,20.33
2018-09-13T05:42:02.228Z,22.73
2018-09-13T05:44:30.319Z,20.00
2018-09-13T05:46:58.313Z,23.17
2018-09-13T05:49:26.321Z,25.40
2018-09-13T05:51:54.374Z,24.73
2018-09-13T05:54:22.592Z,20.27
2018-09-13T05:56:50.652Z,16.83
2018-09-13T05:59:18.782Z,23.43
2018-09-13T06:01:46.814Z,23.50
2018-09-13T06:04:14.870Z,22.00
2018-09-13T06:06:42.898Z,25.50
2018-09-13T06:09:10.974Z,21.43
2018-09-13T06:11:39.024Z,23.90
2018-09-13T06:14:07.140Z,23.10
2018-09-13T06:16:35.171Z,22.60
2018-09-13T06:19:03.285Z,16.63
2018-09-13T06:21:38.155Z,23.90
2018-09-13T06:24:06.191Z,22.03
2018-09-13T06:26:34.263Z,29.03
2018-09-13T06:29:02.342Z,30.13
2018-09-13T06:31:30.345Z,27.30
2018-09-13T06:33:58.384Z,21.67
2018-09-13T06:36:27.233Z,25.57
2018-09-13T06:38:55.244Z,22.83
2018-09-13T06:41:23.257Z,19.13
2018-09-13T06:43:51.383Z,20.57
2018-09-13T06:46:19.425Z,18.53
2018-09-13T06:48:47.477Z,20.07
2018-09-13T06:51:15.507Z,16.17
2018-09-13T06:53:43.552Z,21.93
2018-09-13T06:56:11.620Z,24.10
2018-09-13T06:58:39.774Z,16.70
2018-09-13T07:01:07.879Z,23.70
2018-09-13T07:03:35.956Z,25.83
2018-09-13T07:06:04.000Z,23.47
2018-09-13T07:08:32.238Z,26.50
2018-09-13T07:11:00.365Z,25.63
2018-09-13T07:13:28.540Z,24.43
2018-09-13T07:15:56.601Z,28.60
2018-09-13T07:18:24.764Z,30.97
2018-09-13T07:20:52.804Z,25.30
2018-09-13T07:23:20.858Z,33.67
2018-09-13T07:25:48.921Z,39.00
2018-09-13T07:28:16.975Z,35.43
2018-09-13T07:30:45.253Z,41.63
2018-09-13T07:33:13.689Z,33.90
2018-09-13T07:35:41.736Z,32.17
2018-09-13T07:38:09.795Z,36.03
2018-09-13T07:40:37.821Z,28.13
2018-09-13T07:43:05.868Z,31.93
2018-09-13T07:45:33.910Z,35.23
2018-09-13T07:48:01.936Z,33.13
2018-09-13T07:50:29.997Z,27.13
2018-09-13T07:52:58.033Z,32.80
2018-09-13T07:55:26.118Z,34.27
2018-09-13T07:57:54.205Z,42.90
2018-09-13T08:00:22.237Z,37.10
2018-09-13T08:02:50.273Z,38.00
2018-09-13T08:05:18.329Z,42.70
2018-09-13T08:07:46.411Z,45.17
2018-09-13T08:10:14.456Z,40.23
2018-09-13T08:12:42.479Z,44.33
2018-09-13T08:15:10.548Z,44.63
2018-09-13T08:17:38.617Z,40.40
2018-09-13T08:20:06.709Z,43.33
2018-09-13T08:22:34.773Z,32.10
2018-09-13T08:25:02.856Z,47.40
2018-09-13T08:27:30.936Z,37.97
2018-09-13T08:29:59.001Z,49.73
2018-09-13T08:32:27.090Z,56.37
2018-09-13T08:34:55.210Z,53.83
2018-09-13T08:37:23.162Z,43.70
2018-09-13T08:39:51.372Z,44.53
2018-09-13T08:42:19.435Z,38.87
2018-09-13T08:44:47.457Z,34.30
2018-09-13T08:47:15.613Z,32.40
2018-09-13T08:49:43.656Z,38.40
2018-09-13T08:52:11.764Z,35.33
2018-09-13T08:54:39.791Z,30.30
2018-09-13T08:57:07.863Z,28.70
2018-09-13T08:59:35.897Z,33.67
2018-09-13T09:02:03.964Z,33.63
2018-09-13T09:04:32.092Z,30.70
2018-09-13T09:07:00.154Z,29.20
2018-09-13T09:09:28.186Z,32.23
2018-09-13T09:11:56.258Z,31.23
2018-09-13T09:14:24.257Z,34.47
2018-09-13T09:16:52.332Z,32.57
2018-09-13T09:19:20.387Z,32.67
2018-09-13T09:21:48.465Z,34.77
2018-09-13T09:24:16.480Z,37.53
2018-09-13T09:26:44.558Z,31.17
2018-09-13T09:29:12.643Z,36.30
2018-09-13T09:31:45.456Z,30.40
2018-09-13T09:34:13.578Z,33.67
2018-09-13T09:36:41.605Z,37.27
2018-09-13T09:39:10.050Z,34.80
2018-09-13T09:41:38.088Z,31.00
2018-09-13T09:44:06.383Z,41.37
2018-09-13T09:46:34.432Z,46.67
2018-09-13T09:49:02.485Z,45.67
2018-09-13T09:51:30.512Z,41.30
2018-09-13T09:53:58.549Z,42.70
2018-09-13T09:56:26.619Z,37.70
2018-09-13T09:58:54.641Z,41.57
2018-09-13T10:01:22.665Z,44.23
2018-09-13T10:03:50.708Z,43.47
2018-09-13T10:06:18.716Z,28.10
2018-09-13T10:08:46.944Z,24.33
2018-09-13T10:11:15.037Z,46.60
2018-09-13T10:13:43.116Z,47.97
2018-09-13T10:16:11.175Z,44.27
2018-09-13T10:18:39.181Z,28.83
2018-09-13T10:21:07.233Z,49.37
2018-09-13T10:23:35.367Z,45.27
2018-09-13T10:26:03.433Z,42.03
2018-09-13T10:28:31.537Z,38.20
2018-09-13T10:30:59.546Z,36.80
2018-09-13T10:33:27.635Z,40.47
2018-09-13T10:35:55.665Z,39.23
2018-09-13T10:38:23.680Z,39.40
2018-09-13T10:40:51.727Z,39.80
2018-09-13T10:43:19.846Z,42.00
2018-09-13T10:45:47.878Z,34.90
2018-09-13T10:48:16.033Z,45.63
2018-09-13T10:50:44.310Z,34.30
2018-09-13T10:53:12.475Z,37.67
2018-09-13T10:55:40.598Z,34.60
2018-09-13T10:58:08.908Z,35.07
2018-09-13T11:00:37.045Z,31.43
2018-09-13T11:03:05.386Z,26.53
2018-09-13T11:05:33.489Z,39.53
2018-09-13T11:08:01.544Z,34.17
2018-09-13T11:10:29.666Z,39.37
2018-09-13T11:12:57.816Z,32.43
2018-09-13T11:15:25.821Z,34.97
2018-09-13T11:17:53.975Z,31.10
2018-09-13T11:20:22.022Z,32.50
2018-09-13T11:22:50.171Z,33.50
2018-09-13T11:25:18.202Z,40.73
2018-09-13T11:27:46.323Z,36.10
2018-09-13T11:30:14.353Z,37.33
2018-09-13T11:32:42.421Z,32.00
2018-09-13T11:35:10.512Z,30.27
2018-09-13T11:37:38.641Z,28.03
2018-09-13T11:40:06.767Z,24.03
2018-09-13T11:42:34.805Z,24.40
2018-09-13T11:45:03.028Z,25.90
2018-09-13T11:47:31.072Z,25.50
2018-09-13T11:49:59.124Z,22.20
2018-09-13T11:52:27.364Z,24.90
2018-09-13T11:54:55.541Z,22.30
2018-09-13T11:57:23.537Z,19.87
2018-09-13T11:59:51.743Z,19.90
2018-09-13T12:02:19.908Z,18.97
2018-09-13T12:04:47.940Z,15.83
2018-09-13T12:07:16.015Z,15.77
2018-09-13T12:09:44.073Z,15.40
2018-09-13T12:12:12.115Z,14.57
2018-09-13T12:14:40.162Z,14.23
2018-09-13T12:17:08.322Z,12.83
2018-09-13T12:19:36.468Z,13.60
2018-09-13T12:22:04.673Z,13.13
2018-09-13T12:24:32.830Z,11.70
2018-09-13T12:27:00.892Z,13.87
2018-09-13T12:29:28.985Z,15.30
2018-09-13T12:31:57.040Z,11.93
2018-09-13T12:34:25.081Z,9.90
2018-09-13T12:36:53.113Z,10.77
2018-09-13T12:39:21.227Z,11.77
2018-09-13T12:41:49.264Z,11.60
2018-09-13T12:44:17.292Z,10.70
2018-09-13T12:46:45.349Z,9.20
2018-09-13T12:49:13.526Z,8.47
2018-09-13T12:51:41.648Z,9.77
2018-09-13T12:54:09.628Z,11.33
2018-09-13T12:56:37.722Z,10.10
2018-09-13T12:59:06.102Z,9.43
2018-09-13T13:01:34.169Z,9.57
2018-09-13T13:04:02.345Z,13.23
2018-09-13T13:06:30.471Z,13.33
2018-09-13T13:08:58.599Z,14.07
2018-09-13T13:11:26.684Z,14.27
2018-09-13T13:13:54.881Z,14.50
2018-09-13T13:16:23.088Z,11.43
2018-09-13T13:18:51.157Z,11.57
2018-09-13T13:21:19.325Z,10.30
2018-09-13T13:23:47.399Z,9.67
2018-09-13T13:26:15.442Z,7.40
2018-09-13T13:28:43.540Z,6.47
2018-09-13T13:31:11.585Z,10.30
2018-09-13T13:33:39.679Z,7.13
2018-09-13T13:36:07.750Z,7.30
2018-09-13T13:38:35.786Z,9.77
2018-09-13T13:41:03.848Z,6.13
2018-09-13T13:43:32.100Z,7.57
2018-09-13T13:46:00.174Z,9.27
2018-09-13T13:48:28.260Z,9.50
2018-09-13T13:50:56.288Z,6.73
2018-09-13T13:53:24.360Z,7.60
2018-09-13T13:55:52.515Z,5.30
2018-09-13T13:58:20.589Z,6.10
2018-09-13T14:00:48.813Z,6.13
2018-09-13T14:03:16.874Z,6.77
2018-09-13T14:05:44.901Z,4.50
2018-09-13T14:08:12.953Z,5.33
2018-09-13T14:10:40.973Z,7.13
2018-09-13T14:13:09.068Z,9.20
2018-09-13T14:15:37.098Z,5.17
2018-09-13T14:18:05.814Z,7.43
2018-09-13T14:20:33.992Z,6.57
2018-09-13T14:23:01.976Z,8.17
2018-09-13T14:25:29.979Z,4.43
2018-09-13T14:27:59.624Z,5.93
2018-09-13T14:30:27.787Z,6.60
2018-09-13T14:32:55.828Z,7.40
2018-09-13T14:35:23.918Z,5.23
2018-09-13T14:37:53.113Z,7.20
2018-09-13T14:40:21.172Z,5.90
2018-09-13T14:42:49.231Z,5.33
2018-09-13T14:45:17.387Z,5.73
2018-09-13T14:47:45.405Z,5.87
2018-09-13T14:50:13.426Z,4.40
2018-09-13T14:52:41.501Z,5.93
2018-09-13T14:55:09.578Z,4.67
2018-09-13T14:57:37.632Z,5.83
2018-09-13T15:00:06.327Z,5.10
2018-09-13T15:02:34.493Z,8.70
2018-09-13T15:05:02.730Z,5.87
2018-09-13T15:07:30.767Z,6.67
2018-09-13T15:09:58.810Z,6.50
2018-09-13T15:12:26.944Z,7.43
2018-09-13T15:14:54.998Z,4.20
2018-09-13T15:17:23.018Z,6.93
2018-09-13T15:19:51.119Z,7.50
2018-09-13T15:22:19.240Z,7.40
2018-09-13T15:24:47.310Z,7.17
2018-09-13T15:27:15.329Z,5.73
2018-09-13T15:29:43.456Z,7.87
2018-09-13T15:32:11.541Z,6.67
2018-09-13T15:34:39.621Z,5.47
2018-09-13T15:37:07.828Z,4.40
2018-09-13T15:39:35.808Z,6.87
2018-09-13T15:42:03.875Z,3.77
2018-09-13T15:44:32.030Z,7.63
2018-09-13T15:47:00.229Z,7.13
2018-09-13T15:49:28.271Z,5.90
2018-09-13T15:51:56.364Z,5.87
2018-09-13T15:54:24.475Z,6.23
2018-09-13T15:56:52.584Z,3.77
2018-09-13T15:59:20.724Z,6.53
2018-09-13T16:01:48.744Z,6.13
2018-09-13T16:04:16.791Z,6.03
2018-09-13T16:06:44.897Z,4.53
2018-09-13T16:09:12.904Z,4.97
2018-09-13T16:11:40.980Z,5.30
2018-09-13T16:14:09.207Z,8.33
2018-09-13T16:16:37.261Z,4.60
2018-09-13T16:19:05.338Z,3.80
2018-09-13T16:21:34.421Z,7.70
2018-09-13T16:24:02.486Z,8.43
2018-09-13T16:26:30.722Z,7.13
2018-09-13T16:28:58.825Z,8.10
2018-09-13T16:31:26.938Z,5.03
2018-09-13T16:33:55.042Z,7.57
2018-09-13T16:36:24.724Z,4.03
2018-09-13T16:38:52.856Z,8.13
2018-09-13T16:41:23.145Z,6.77
2018-09-13T16:43:51.393Z,5.50
2018-09-13T16:46:19.502Z,10.93
2018-09-13T16:48:47.880Z,6.90
2018-09-13T16:51:16.080Z,5.73
2018-09-13T16:53:44.664Z,10.33
2018-09-13T16:56:13.558Z,8.57
2018-09-13T16:58:42.857Z,6.70
2018-09-13T17:01:12.459Z,7.67
2018-09-13T17:03:41.764Z,10.13
2018-09-13T17:06:10.023Z,9.47
2018-09-13T17:08:38.124Z,9.80
2018-09-13T17:11:06.301Z,9.47
2018-09-13T17:13:34.387Z,7.17
2018-09-13T17:16:02.515Z,6.00
2018-09-13T17:18:30.716Z,6.63
2018-09-13T17:20:58.846Z,6.23
2018-09-13T17:23:27.014Z,6.40
2018-09-13T17:25:55.072Z,8.70
2018-09-13T17:28:23.133Z,7.67
2018-09-13T17:30:51.260Z,8.47
2018-09-13T17:33:19.308Z,6.23
2018-09-13T17:35:47.381Z,10.50
2018-09-13T17:38:15.539Z,4.10
2018-09-13T17:40:43.606Z,5.27
2018-09-13T17:43:11.758Z,4.30
2018-09-13T17:45:39.927Z,7.47
2018-09-13T17:48:08.054Z,4.33
2018-09-13T17:50:36.272Z,5.33
2018-09-13T17:53:04.391Z,5.17
2018-09-13T17:55:32.484Z,8.33
2018-09-13T17:58:01.476Z,9.23
2018-09-13T18:00:29.536Z,4.23
2018-09-13T18:02:57.615Z,12.13
2018-09-13T18:05:25.673Z,6.37
2018-09-13T18:07:53.705Z,4.77
2018-09-13T18:10:21.778Z,5.90
2018-09-13T18:12:49.809Z,7.47
2018-09-13T18:15:17.941Z,10.60
2018-09-13T18:17:46.130Z,10.17
2018-09-13T18:20:14.209Z,12.27
2018-09-13T18:22:42.253Z,9.13
2018-09-13T18:25:10.322Z,12.13
2018-09-13T18:27:38.501Z,9.23
2018-09-13T18:30:06.574Z,8.70
2018-09-13T18:32:34.648Z,9.17
2018-09-13T18:35:02.757Z,5.40
2018-09-13T18:37:30.877Z,6.40
2018-09-13T18:39:58.971Z,12.90
2018-09-13T18:42:27.027Z,15.53
2018-09-13T18:44:55.142Z,12.07
2018-09-13T18:47:23.286Z,7.30
2018-09-13T18:49:51.345Z,7.13
2018-09-13T18:52:20.377Z,10.90
2018-09-13T18:54:48.468Z,11.83
2018-09-13T18:57:16.550Z,10.93
2018-09-13T18:59:44.595Z,14.73
2018-09-13T19:02:12.649Z,10.03
2018-09-13T19:04:40.720Z,8.93
2018-09-13T19:07:08.831Z,13.20
2018-09-13T19:09:36.958Z,7.87
2018-09-13T19:12:11.706Z,12.80
2018-09-13T19:14:39.778Z,8.77
2018-09-13T19:17:07.900Z,8.63
2018-09-13T19:19:36.011Z,5.93
2018-09-13T19:22:04.072Z,6.93
2018-09-13T19:24:32.249Z,5.77
2018-09-13T19:27:00.358Z,7.83
2018-09-13T19:29:28.477Z,4.30
2018-09-13T19:31:56.584Z,5.17
2018-09-13T19:34:24.674Z,8.00
2018-09-13T19:36:53.277Z,7.53
2018-09-13T19:39:27.922Z,7.27
2018-09-13T19:41:56.004Z,7.90
2018-09-13T19:44:24.199Z,5.90
2018-09-13T19:46:52.383Z,6.23
2018-09-13T19:49:20.402Z,9.07
2018-09-13T19:51:48.447Z,6.43
2018-09-13T19:54:16.523Z,7.37
2018-09-13T19:56:44.625Z,6.83
2018-09-13T19:59:12.694Z,7.93
2018-09-13T20:01:41.147Z,6.73
2018-09-13T20:04:09.175Z,6.70
2018-09-13T20:06:37.252Z,8.90
2018-09-13T20:09:07.973Z,6.90
2018-09-13T20:11:36.207Z,7.43
2018-09-13T20:14:04.291Z,4.17
2018-09-13T20:16:32.427Z,6.70
2018-09-13T20:19:00.562Z,6.17
2018-09-13T20:21:28.854Z,5.20
2018-09-13T20:23:56.905Z,6.30
2018-09-13T20:26:25.654Z,6.07
2018-09-13T20:28:53.922Z,7.67
2018-09-13T20:31:22.039Z,6.37
2018-09-13T20:33:50.487Z,6.43
2018-09-13T20:36:18.551Z,5.27
2018-09-13T20:38:46.648Z,7.40
2018-09-13T20:41:14.773Z,5.40
2018-09-13T20:43:42.829Z,6.53
2018-09-13T20:46:10.890Z,5.03
2018-09-13T20:48:38.946Z,7.07
2018-09-13T20:51:07.023Z,6.03
2018-09-13T20:53:35.093Z,6.40
2018-09-13T20:56:03.182Z,6.70
2018-09-13T20:58:31.376Z,6.77
2018-09-13T21:00:59.488Z,5.53
2018-09-13T21:03:27.524Z,10.17
2018-09-13T21:05:55.635Z,5.63
2018-09-13T21:08:23.662Z,6.53
2018-09-13T21:10:51.759Z,6.17
2018-09-13T21:13:19.947Z,3.83
2018-09-13T21:15:48.090Z,4.87
2018-09-13T21:18:16.117Z,5.87
2018-09-13T21:20:44.186Z,5.40
2018-09-13T21:23:12.240Z,4.20
2018-09-13T21:25:40.310Z,5.77
2018-09-13T21:30:42.842Z,4.93
2018-09-13T21:33:10.882Z,5.37
2018-09-13T21:35:38.909Z,7.40
2018-09-13T21:38:06.971Z,4.83
2018-09-13T21:40:35.121Z,6.93
2018-09-13T21:43:03.177Z,8.50
2018-09-13T21:45:31.212Z,6.13
2018-09-13T21:47:59.442Z,8.00
2018-09-13T21:50:27.623Z,10.53
2018-09-13T21:52:55.731Z,9.33
2018-09-13T21:55:23.816Z,9.30
2018-09-13T21:57:51.860Z,7.93
2018-09-13T22:00:19.976Z,3.07
2018-09-13T22:02:48.007Z,9.27
2018-09-13T22:05:16.098Z,5.60
2018-09-13T22:07:44.446Z,3.50
2018-09-13T22:10:12.636Z,8.23
2018-09-13T22:12:40.702Z,4.93
2018-09-13T22:15:10.827Z,6.27
2018-09-13T22:17:38.922Z,6.77
2018-09-13T22:20:06.984Z,6.73
2018-09-13T22:22:41.785Z,7.43
2018-09-13T22:25:09.828Z,6.77
2018-09-13T22:27:37.904Z,9.30
2018-09-13T22:30:06.162Z,5.50
2018-09-13T22:32:34.213Z,5.97
2018-09-13T22:35:02.246Z,5.97
2018-09-13T22:37:30.260Z,6.87
2018-09-13T22:39:58.352Z,8.10
2018-09-13T22:42:26.345Z,5.70
2018-09-13T22:44:54.477Z,8.57
2018-09-13T22:47:22.463Z,5.53
2018-09-13T22:49:50.606Z,6.93
2018-09-13T22:52:18.662Z,5.80
2018-09-13T22:54:46.698Z,7.03
2018-09-13T22:57:14.749Z,9.33
2018-09-13T22:59:42.874Z,5.80
2018-09-13T23:02:10.902Z,8.33
2018-09-13T23:04:38.989Z,6.03
2018-09-13T23:07:07.294Z,4.50
2018-09-13T23:09:35.616Z,11.17
2018-09-13T23:12:03.693Z,7.60
2018-09-13T23:14:31.812Z,4.13
2018-09-13T23:16:59.852Z,6.53
2018-09-13T23:19:27.910Z,9.27
2018-09-13T23:21:55.933Z,6.87
2018-09-13T23:24:23.944Z,6.30
2018-09-13T23:26:52.033Z,5.60
2018-09-13T23:29:20.049Z,6.97
2018-09-13T23:31:48.074Z,6.60
2018-09-13T23:34:16.057Z,7.50
2018-09-13T23:36:44.116Z,7.37
2018-09-13T23:39:12.262Z,6.90
2018-09-13T23:41:40.133Z,5.87
2018-09-13T23:44:08.177Z,5.87
2018-09-13T23:46:36.231Z,5.03
2018-09-13T23:49:04.297Z,8.47
2018-09-13T23:51:32.465Z,7.17
2018-09-13T23:54:00.488Z,5.83
2018-09-13T23:56:29.751Z,8.03
2018-09-13T23:58:57.772Z,6.67
